sensor_id;sensor_type;location;lat;lon;timestamp;P1;durP1;ratioP1;P2;durP2;ratioP2
15655;SDS011;7928;43.614;1.456;2022-07-29T00:00:39;2.83;;;1.57;;
15655;SDS011;7928;43.614;1.456;2022-07-29T00:03:09;3.07;;;1.53;;
15655;SDS011;7928;43.614;1.456;2022-07-29T00:05:37;2.67;;;1.47;;
15655;SDS011;7928;43.614;1.456;2022-07-29T00:08:05;2.77;;;1.40;;
15655;SDS011;7928;43.614;1.456;2022-07-29T00:10:32;4.53;;;1.50;;
15655;SDS011;7928;43.614;1.456;2022-07-29T00:13:01;2.13;;;1.50;;
15655;SDS011;7928;43.614;1.456;2022-07-29T00:15:28;5.17;;;1.47;;
15655;SDS011;7928;43.614;1.456;2022-07-29T00:17:55;2.40;;;1.80;;
15655;SDS011;7928;43.614;1.456;2022-07-29T00:20:22;4.57;;;1.87;;
15655;SDS011;7928;43.614;1.456;2022-07-29T00:22:49;3.30;;;1.83;;
15655;SDS011;7928;43.614;1.456;2022-07-29T00:25:17;4.77;;;1.70;;
15655;SDS011;7928;43.614;1.456;2022-07-29T00:27:44;2.13;;;1.40;;
15655;SDS011;7928;43.614;1.456;2022-07-29T00:30:13;3.27;;;1.40;;
15655;SDS011;7928;43.614;1.456;2022-07-29T00:32:40;4.67;;;1.50;;
15655;SDS011;7928;43.614;1.456;2022-07-29T00:35:07;3.87;;;1.37;;
15655;SDS011;7928;43.614;1.456;2022-07-29T00:37:52;2.70;;;1.63;;
15655;SDS011;7928;43.614;1.456;2022-07-29T00:40:19;2.43;;;1.60;;
15655;SDS011;7928;43.614;1.456;2022-07-29T00:42:47;3.77;;;1.80;;
15655;SDS011;7928;43.614;1.456;2022-07-29T00:45:17;4.90;;;1.83;;
15655;SDS011;7928;43.614;1.456;2022-07-29T00:47:44;2.97;;;2.00;;
15655;SDS011;7928;43.614;1.456;2022-07-29T00:50:12;3.30;;;1.70;;
15655;SDS011;7928;43.614;1.456;2022-07-29T00:52:40;5.00;;;1.97;;
15655;SDS011;7928;43.614;1.456;2022-07-29T00:55:09;2.73;;;1.80;;
15655;SDS011;7928;43.614;1.456;2022-07-29T00:57:37;3.13;;;1.57;;
15655;SDS011;7928;43.614;1.456;2022-07-29T01:00:06;2.53;;;1.50;;
15655;SDS011;7928;43.614;1.456;2022-07-29T01:02:36;2.40;;;1.50;;
15655;SDS011;7928;43.614;1.456;2022-07-29T01:05:03;2.67;;;1.60;;
15655;SDS011;7928;43.614;1.456;2022-07-29T01:07:31;3.73;;;1.40;;
15655;SDS011;7928;43.614;1.456;2022-07-29T01:10:01;3.47;;;1.50;;
15655;SDS011;7928;43.614;1.456;2022-07-29T01:12:29;4.23;;;1.50;;
15655;SDS011;7928;43.614;1.456;2022-07-29T01:14:59;4.60;;;1.20;;
15655;SDS011;7928;43.614;1.456;2022-07-29T01:17:28;3.93;;;1.40;;
15655;SDS011;7928;43.614;1.456;2022-07-29T01:20:02;3.83;;;1.60;;
15655;SDS011;7928;43.614;1.456;2022-07-29T01:22:40;3.60;;;1.43;;
15655;SDS011;7928;43.614;1.456;2022-07-29T01:25:31;4.67;;;1.63;;
15655;SDS011;7928;43.614;1.456;2022-07-29T01:28:21;3.23;;;1.50;;
15655;SDS011;7928;43.614;1.456;2022-07-29T01:31:04;2.53;;;1.50;;
15655;SDS011;7928;43.614;1.456;2022-07-29T01:33:33;3.43;;;1.67;;
15655;SDS011;7928;43.614;1.456;2022-07-29T01:36:16;3.07;;;1.50;;
15655;SDS011;7928;43.614;1.456;2022-07-29T01:38:59;2.63;;;1.40;;
15655;SDS011;7928;43.614;1.456;2022-07-29T01:41:32;3.90;;;1.43;;
15655;SDS011;7928;43.614;1.456;2022-07-29T01:44:06;1.73;;;1.13;;
15655;SDS011;7928;43.614;1.456;2022-07-29T01:46:38;3.00;;;1.40;;
15655;SDS011;7928;43.614;1.456;2022-07-29T01:49:11;5.80;;;1.37;;
15655;SDS011;7928;43.614;1.456;2022-07-29T01:51:43;3.77;;;1.40;;
15655;SDS011;7928;43.614;1.456;2022-07-29T01:54:14;2.83;;;1.27;;
15655;SDS011;7928;43.614;1.456;2022-07-29T01:56:47;3.60;;;1.50;;
15655;SDS011;7928;43.614;1.456;2022-07-29T01:59:18;3.63;;;1.10;;
15655;SDS011;7928;43.614;1.456;2022-07-29T02:01:48;3.20;;;1.33;;
15655;SDS011;7928;43.614;1.456;2022-07-29T02:04:18;4.37;;;1.50;;
15655;SDS011;7928;43.614;1.456;2022-07-29T02:06:46;3.03;;;1.37;;
15655;SDS011;7928;43.614;1.456;2022-07-29T02:09:16;3.10;;;1.60;;
15655;SDS011;7928;43.614;1.456;2022-07-29T02:11:47;3.00;;;1.23;;
15655;SDS011;7928;43.614;1.456;2022-07-29T02:14:15;2.43;;;1.43;;
15655;SDS011;7928;43.614;1.456;2022-07-29T02:16:47;4.93;;;1.30;;
15655;SDS011;7928;43.614;1.456;2022-07-29T02:19:17;4.50;;;1.47;;
15655;SDS011;7928;43.614;1.456;2022-07-29T02:21:46;3.90;;;1.10;;
15655;SDS011;7928;43.614;1.456;2022-07-29T02:24:14;5.10;;;1.87;;
15655;SDS011;7928;43.614;1.456;2022-07-29T02:26:44;3.47;;;1.27;;
15655;SDS011;7928;43.614;1.456;2022-07-29T02:29:12;2.47;;;0.90;;
15655;SDS011;7928;43.614;1.456;2022-07-29T02:31:42;3.00;;;1.17;;
15655;SDS011;7928;43.614;1.456;2022-07-29T02:34:12;3.87;;;1.20;;
15655;SDS011;7928;43.614;1.456;2022-07-29T02:36:40;3.47;;;1.20;;
15655;SDS011;7928;43.614;1.456;2022-07-29T02:39:10;2.83;;;1.20;;
15655;SDS011;7928;43.614;1.456;2022-07-29T02:41:40;2.07;;;1.30;;
15655;SDS011;7928;43.614;1.456;2022-07-29T02:44:10;3.13;;;1.40;;
15655;SDS011;7928;43.614;1.456;2022-07-29T02:46:43;3.27;;;1.30;;
15655;SDS011;7928;43.614;1.456;2022-07-29T02:49:16;3.50;;;1.20;;
15655;SDS011;7928;43.614;1.456;2022-07-29T02:51:53;2.97;;;1.10;;
15655;SDS011;7928;43.614;1.456;2022-07-29T02:54:25;4.63;;;1.43;;
15655;SDS011;7928;43.614;1.456;2022-07-29T02:56:57;2.50;;;1.33;;
15655;SDS011;7928;43.614;1.456;2022-07-29T02:59:29;5.17;;;1.43;;
15655;SDS011;7928;43.614;1.456;2022-07-29T03:02:02;2.03;;;1.27;;
15655;SDS011;7928;43.614;1.456;2022-07-29T03:04:31;3.67;;;1.37;;
15655;SDS011;7928;43.614;1.456;2022-07-29T03:07:00;3.23;;;1.20;;
15655;SDS011;7928;43.614;1.456;2022-07-29T03:09:28;3.37;;;1.47;;
15655;SDS011;7928;43.614;1.456;2022-07-29T03:11:55;3.17;;;1.37;;
15655;SDS011;7928;43.614;1.456;2022-07-29T03:14:23;6.57;;;1.50;;
15655;SDS011;7928;43.614;1.456;2022-07-29T03:16:51;7.30;;;1.60;;
15655;SDS011;7928;43.614;1.456;2022-07-29T03:19:20;2.57;;;1.37;;
15655;SDS011;7928;43.614;1.456;2022-07-29T03:21:48;1.77;;;1.00;;
15655;SDS011;7928;43.614;1.456;2022-07-29T03:24:25;3.03;;;1.50;;
15655;SDS011;7928;43.614;1.456;2022-07-29T03:26:56;5.17;;;1.17;;
15655;SDS011;7928;43.614;1.456;2022-07-29T03:29:23;4.17;;;1.70;;
15655;SDS011;7928;43.614;1.456;2022-07-29T03:31:51;4.07;;;1.33;;
15655;SDS011;7928;43.614;1.456;2022-07-29T03:34:19;3.03;;;1.13;;
15655;SDS011;7928;43.614;1.456;2022-07-29T03:36:48;5.20;;;1.73;;
15655;SDS011;7928;43.614;1.456;2022-07-29T03:39:15;3.87;;;1.30;;
15655;SDS011;7928;43.614;1.456;2022-07-29T03:41:47;4.07;;;1.00;;
15655;SDS011;7928;43.614;1.456;2022-07-29T03:44:17;4.47;;;1.47;;
15655;SDS011;7928;43.614;1.456;2022-07-29T03:46:45;4.10;;;1.93;;
15655;SDS011;7928;43.614;1.456;2022-07-29T03:49:14;2.60;;;1.10;;
15655;SDS011;7928;43.614;1.456;2022-07-29T03:51:44;4.30;;;1.60;;
15655;SDS011;7928;43.614;1.456;2022-07-29T03:54:11;5.07;;;1.50;;
15655;SDS011;7928;43.614;1.456;2022-07-29T03:56:39;3.90;;;1.40;;
15655;SDS011;7928;43.614;1.456;2022-07-29T03:59:11;4.70;;;1.93;;
15655;SDS011;7928;43.614;1.456;2022-07-29T04:01:39;4.40;;;1.60;;
15655;SDS011;7928;43.614;1.456;2022-07-29T04:04:07;3.87;;;1.77;;
15655;SDS011;7928;43.614;1.456;2022-07-29T04:06:38;3.87;;;1.80;;
15655;SDS011;7928;43.614;1.456;2022-07-29T04:09:07;4.23;;;1.70;;
15655;SDS011;7928;43.614;1.456;2022-07-29T04:11:35;3.23;;;1.57;;
15655;SDS011;7928;43.614;1.456;2022-07-29T04:14:04;3.00;;;1.07;;
15655;SDS011;7928;43.614;1.456;2022-07-29T04:16:31;3.50;;;1.60;;
15655;SDS011;7928;43.614;1.456;2022-07-29T04:18:58;3.90;;;1.30;;
15655;SDS011;7928;43.614;1.456;2022-07-29T04:21:25;4.83;;;1.60;;
15655;SDS011;7928;43.614;1.456;2022-07-29T04:23:52;2.73;;;1.40;;
15655;SDS011;7928;43.614;1.456;2022-07-29T04:26:21;6.27;;;1.50;;
15655;SDS011;7928;43.614;1.456;2022-07-29T04:28:48;2.43;;;1.10;;
15655;SDS011;7928;43.614;1.456;2022-07-29T04:31:15;4.27;;;1.10;;
15655;SDS011;7928;43.614;1.456;2022-07-29T04:33:42;3.87;;;1.60;;
15655;SDS011;7928;43.614;1.456;2022-07-29T04:36:09;3.20;;;1.40;;
15655;SDS011;7928;43.614;1.456;2022-07-29T04:38:37;3.80;;;1.50;;
15655;SDS011;7928;43.614;1.456;2022-07-29T04:41:04;2.73;;;1.50;;
15655;SDS011;7928;43.614;1.456;2022-07-29T04:43:34;4.90;;;1.47;;
15655;SDS011;7928;43.614;1.456;2022-07-29T04:46:02;2.87;;;1.20;;
15655;SDS011;7928;43.614;1.456;2022-07-29T04:48:29;2.30;;;1.30;;
15655;SDS011;7928;43.614;1.456;2022-07-29T04:50:56;2.90;;;1.40;;
15655;SDS011;7928;43.614;1.456;2022-07-29T04:53:23;6.03;;;1.70;;
15655;SDS011;7928;43.614;1.456;2022-07-29T04:55:51;4.00;;;1.27;;
15655;SDS011;7928;43.614;1.456;2022-07-29T04:58:18;4.47;;;1.20;;
15655;SDS011;7928;43.614;1.456;2022-07-29T05:00:46;2.63;;;1.33;;
15655;SDS011;7928;43.614;1.456;2022-07-29T05:03:13;3.07;;;1.53;;
15655;SDS011;7928;43.614;1.456;2022-07-29T05:05:40;2.47;;;1.40;;
15655;SDS011;7928;43.614;1.456;2022-07-29T05:08:07;3.93;;;1.60;;
15655;SDS011;7928;43.614;1.456;2022-07-29T05:10:34;2.63;;;0.97;;
15655;SDS011;7928;43.614;1.456;2022-07-29T05:13:03;4.33;;;1.43;;
15655;SDS011;7928;43.614;1.456;2022-07-29T05:15:31;4.70;;;1.50;;
15655;SDS011;7928;43.614;1.456;2022-07-29T05:18:00;3.90;;;1.43;;
15655;SDS011;7928;43.614;1.456;2022-07-29T05:20:27;5.77;;;1.90;;
15655;SDS011;7928;43.614;1.456;2022-07-29T05:22:54;6.17;;;2.20;;
15655;SDS011;7928;43.614;1.456;2022-07-29T05:25:22;5.43;;;2.10;;
15655;SDS011;7928;43.614;1.456;2022-07-29T05:27:49;5.87;;;2.43;;
15655;SDS011;7928;43.614;1.456;2022-07-29T05:30:16;7.23;;;2.00;;
15655;SDS011;7928;43.614;1.456;2022-07-29T05:32:43;5.10;;;1.50;;
15655;SDS011;7928;43.614;1.456;2022-07-29T05:35:12;6.87;;;2.17;;
15655;SDS011;7928;43.614;1.456;2022-07-29T05:37:39;4.90;;;2.00;;
15655;SDS011;7928;43.614;1.456;2022-07-29T05:40:07;5.83;;;2.30;;
15655;SDS011;7928;43.614;1.456;2022-07-29T05:42:35;6.27;;;2.10;;
15655;SDS011;7928;43.614;1.456;2022-07-29T05:45:02;7.93;;;2.00;;
15655;SDS011;7928;43.614;1.456;2022-07-29T05:47:30;6.03;;;2.10;;
15655;SDS011;7928;43.614;1.456;2022-07-29T05:49:57;5.83;;;2.03;;
15655;SDS011;7928;43.614;1.456;2022-07-29T05:52:25;5.10;;;2.20;;
15655;SDS011;7928;43.614;1.456;2022-07-29T05:54:53;5.17;;;2.00;;
15655;SDS011;7928;43.614;1.456;2022-07-29T05:57:20;6.50;;;2.03;;
15655;SDS011;7928;43.614;1.456;2022-07-29T05:59:48;3.67;;;2.00;;
15655;SDS011;7928;43.614;1.456;2022-07-29T06:02:16;5.07;;;2.03;;
15655;SDS011;7928;43.614;1.456;2022-07-29T06:04:43;6.37;;;2.17;;
15655;SDS011;7928;43.614;1.456;2022-07-29T06:07:10;7.60;;;2.30;;
15655;SDS011;7928;43.614;1.456;2022-07-29T06:09:39;6.83;;;2.50;;
15655;SDS011;7928;43.614;1.456;2022-07-29T06:12:06;4.70;;;2.40;;
15655;SDS011;7928;43.614;1.456;2022-07-29T06:14:33;4.33;;;1.63;;
15655;SDS011;7928;43.614;1.456;2022-07-29T06:17:03;6.53;;;2.20;;
15655;SDS011;7928;43.614;1.456;2022-07-29T06:19:30;6.23;;;2.80;;
15655;SDS011;7928;43.614;1.456;2022-07-29T06:21:57;5.03;;;2.20;;
15655;SDS011;7928;43.614;1.456;2022-07-29T06:24:24;7.00;;;2.77;;
15655;SDS011;7928;43.614;1.456;2022-07-29T06:26:53;5.17;;;2.53;;
15655;SDS011;7928;43.614;1.456;2022-07-29T06:29:20;5.90;;;2.50;;
15655;SDS011;7928;43.614;1.456;2022-07-29T06:31:47;5.87;;;2.80;;
15655;SDS011;7928;43.614;1.456;2022-07-29T06:34:14;7.67;;;2.40;;
15655;SDS011;7928;43.614;1.456;2022-07-29T06:36:41;3.90;;;2.07;;
15655;SDS011;7928;43.614;1.456;2022-07-29T06:39:08;9.57;;;2.20;;
15655;SDS011;7928;43.614;1.456;2022-07-29T06:41:36;4.77;;;2.43;;
15655;SDS011;7928;43.614;1.456;2022-07-29T06:44:07;4.50;;;2.13;;
15655;SDS011;7928;43.614;1.456;2022-07-29T06:46:34;6.00;;;2.70;;
15655;SDS011;7928;43.614;1.456;2022-07-29T06:49:01;8.57;;;5.43;;
15655;SDS011;7928;43.614;1.456;2022-07-29T06:51:29;4.87;;;2.87;;
15655;SDS011;7928;43.614;1.456;2022-07-29T06:53:56;5.80;;;2.60;;
15655;SDS011;7928;43.614;1.456;2022-07-29T06:56:23;7.07;;;2.80;;
15655;SDS011;7928;43.614;1.456;2022-07-29T06:58:51;7.83;;;2.77;;
15655;SDS011;7928;43.614;1.456;2022-07-29T07:01:19;4.23;;;2.20;;
15655;SDS011;7928;43.614;1.456;2022-07-29T07:03:46;6.17;;;2.50;;
15655;SDS011;7928;43.614;1.456;2022-07-29T07:06:13;5.70;;;2.30;;
15655;SDS011;7928;43.614;1.456;2022-07-29T07:08:40;7.13;;;3.33;;
15655;SDS011;7928;43.614;1.456;2022-07-29T07:11:08;4.93;;;2.80;;
15655;SDS011;7928;43.614;1.456;2022-07-29T07:13:35;5.27;;;2.60;;
15655;SDS011;7928;43.614;1.456;2022-07-29T07:16:02;5.80;;;2.50;;
15655;SDS011;7928;43.614;1.456;2022-07-29T07:18:31;6.20;;;2.73;;
15655;SDS011;7928;43.614;1.456;2022-07-29T07:21:00;4.67;;;2.60;;
15655;SDS011;7928;43.614;1.456;2022-07-29T07:23:27;3.97;;;2.20;;
15655;SDS011;7928;43.614;1.456;2022-07-29T07:25:54;5.93;;;3.20;;
15655;SDS011;7928;43.614;1.456;2022-07-29T07:28:21;7.93;;;2.90;;
15655;SDS011;7928;43.614;1.456;2022-07-29T07:30:48;6.03;;;2.43;;
15655;SDS011;7928;43.614;1.456;2022-07-29T07:33:15;3.57;;;2.57;;
15655;SDS011;7928;43.614;1.456;2022-07-29T07:35:43;5.07;;;2.37;;
15655;SDS011;7928;43.614;1.456;2022-07-29T07:38:10;5.13;;;2.80;;
15655;SDS011;7928;43.614;1.456;2022-07-29T07:40:37;7.30;;;2.47;;
15655;SDS011;7928;43.614;1.456;2022-07-29T07:43:05;4.73;;;2.83;;
15655;SDS011;7928;43.614;1.456;2022-07-29T07:45:32;4.10;;;2.40;;
15655;SDS011;7928;43.614;1.456;2022-07-29T07:47:59;5.17;;;3.00;;
15655;SDS011;7928;43.614;1.456;2022-07-29T07:50:26;3.63;;;2.50;;
15655;SDS011;7928;43.614;1.456;2022-07-29T07:52:55;5.03;;;2.30;;
15655;SDS011;7928;43.614;1.456;2022-07-29T07:55:23;4.13;;;2.80;;
15655;SDS011;7928;43.614;1.456;2022-07-29T07:57:50;5.07;;;2.90;;
15655;SDS011;7928;43.614;1.456;2022-07-29T08:00:17;7.73;;;3.57;;
15655;SDS011;7928;43.614;1.456;2022-07-29T08:02:44;5.50;;;2.80;;
15655;SDS011;7928;43.614;1.456;2022-07-29T08:05:12;5.47;;;3.20;;
15655;SDS011;7928;43.614;1.456;2022-07-29T08:07:42;4.87;;;2.93;;
15655;SDS011;7928;43.614;1.456;2022-07-29T08:10:11;6.10;;;2.63;;
15655;SDS011;7928;43.614;1.456;2022-07-29T08:12:38;6.13;;;2.70;;
15655;SDS011;7928;43.614;1.456;2022-07-29T08:15:06;5.17;;;2.50;;
15655;SDS011;7928;43.614;1.456;2022-07-29T08:17:33;4.77;;;2.60;;
15655;SDS011;7928;43.614;1.456;2022-07-29T08:20:00;6.73;;;2.80;;
15655;SDS011;7928;43.614;1.456;2022-07-29T08:22:28;4.53;;;2.70;;
15655;SDS011;7928;43.614;1.456;2022-07-29T08:24:55;4.50;;;2.50;;
15655;SDS011;7928;43.614;1.456;2022-07-29T08:27:23;6.17;;;2.47;;
15655;SDS011;7928;43.614;1.456;2022-07-29T08:29:51;4.00;;;2.67;;
15655;SDS011;7928;43.614;1.456;2022-07-29T08:32:18;5.50;;;3.07;;
15655;SDS011;7928;43.614;1.456;2022-07-29T08:34:45;4.83;;;2.90;;
15655;SDS011;7928;43.614;1.456;2022-07-29T08:37:12;6.07;;;3.07;;
15655;SDS011;7928;43.614;1.456;2022-07-29T08:39:39;3.87;;;2.77;;
15655;SDS011;7928;43.614;1.456;2022-07-29T08:42:06;4.93;;;2.90;;
15655;SDS011;7928;43.614;1.456;2022-07-29T08:44:36;3.77;;;2.43;;
15655;SDS011;7928;43.614;1.456;2022-07-29T08:47:03;5.53;;;2.40;;
15655;SDS011;7928;43.614;1.456;2022-07-29T08:49:31;6.20;;;2.57;;
15655;SDS011;7928;43.614;1.456;2022-07-29T08:52:00;4.27;;;2.67;;
15655;SDS011;7928;43.614;1.456;2022-07-29T08:54:27;8.77;;;2.70;;
15655;SDS011;7928;43.614;1.456;2022-07-29T08:56:55;7.17;;;2.67;;
15655;SDS011;7928;43.614;1.456;2022-07-29T08:59:24;3.57;;;2.50;;
15655;SDS011;7928;43.614;1.456;2022-07-29T09:01:54;4.57;;;2.37;;
15655;SDS011;7928;43.614;1.456;2022-07-29T09:04:25;4.83;;;2.50;;
15655;SDS011;7928;43.614;1.456;2022-07-29T09:06:56;5.70;;;2.63;;
15655;SDS011;7928;43.614;1.456;2022-07-29T09:09:26;8.13;;;3.23;;
15655;SDS011;7928;43.614;1.456;2022-07-29T09:11:53;3.33;;;2.70;;
15655;SDS011;7928;43.614;1.456;2022-07-29T09:14:21;6.33;;;2.80;;
15655;SDS011;7928;43.614;1.456;2022-07-29T09:16:49;6.10;;;2.63;;
15655;SDS011;7928;43.614;1.456;2022-07-29T09:19:26;5.33;;;2.90;;
15655;SDS011;7928;43.614;1.456;2022-07-29T09:21:54;6.70;;;2.87;;
15655;SDS011;7928;43.614;1.456;2022-07-29T09:24:38;4.70;;;2.50;;
15655;SDS011;7928;43.614;1.456;2022-07-29T09:27:10;3.70;;;2.43;;
15655;SDS011;7928;43.614;1.456;2022-07-29T09:29:46;6.57;;;2.90;;
15655;SDS011;7928;43.614;1.456;2022-07-29T09:32:13;4.83;;;2.30;;
15655;SDS011;7928;43.614;1.456;2022-07-29T09:34:41;3.80;;;2.50;;
15655;SDS011;7928;43.614;1.456;2022-07-29T09:37:08;5.33;;;3.00;;
15655;SDS011;7928;43.614;1.456;2022-07-29T09:39:38;4.83;;;2.27;;
15655;SDS011;7928;43.614;1.456;2022-07-29T09:42:10;7.03;;;2.40;;
15655;SDS011;7928;43.614;1.456;2022-07-29T09:44:42;4.60;;;2.43;;
15655;SDS011;7928;43.614;1.456;2022-07-29T09:47:10;7.90;;;2.80;;
15655;SDS011;7928;43.614;1.456;2022-07-29T09:49:51;5.33;;;2.60;;
15655;SDS011;7928;43.614;1.456;2022-07-29T09:52:20;4.73;;;2.83;;
15655;SDS011;7928;43.614;1.456;2022-07-29T09:54:47;4.33;;;2.47;;
15655;SDS011;7928;43.614;1.456;2022-07-29T09:57:21;4.97;;;2.20;;
15655;SDS011;7928;43.614;1.456;2022-07-29T09:59:55;5.43;;;2.40;;
15655;SDS011;7928;43.614;1.456;2022-07-29T10:02:27;3.93;;;2.30;;
15655;SDS011;7928;43.614;1.456;2022-07-29T10:04:57;4.67;;;2.20;;
15655;SDS011;7928;43.614;1.456;2022-07-29T10:07:24;9.27;;;2.43;;
15655;SDS011;7928;43.614;1.456;2022-07-29T10:09:55;4.03;;;2.30;;
15655;SDS011;7928;43.614;1.456;2022-07-29T10:12:23;3.90;;;1.90;;
15655;SDS011;7928;43.614;1.456;2022-07-29T10:14:50;8.80;;;2.50;;
15655;SDS011;7928;43.614;1.456;2022-07-29T10:17:18;4.67;;;2.07;;
15655;SDS011;7928;43.614;1.456;2022-07-29T10:19:45;2.97;;;1.83;;
15655;SDS011;7928;43.614;1.456;2022-07-29T10:22:15;4.03;;;2.30;;
15655;SDS011;7928;43.614;1.456;2022-07-29T10:24:42;4.03;;;1.77;;
15655;SDS011;7928;43.614;1.456;2022-07-29T10:27:09;3.77;;;1.60;;
15655;SDS011;7928;43.614;1.456;2022-07-29T10:29:37;5.30;;;2.00;;
15655;SDS011;7928;43.614;1.456;2022-07-29T10:35:15;4.67;;;1.10;;
15655;SDS011;7928;43.614;1.456;2022-07-29T10:38:04;3.27;;;2.03;;
15655;SDS011;7928;43.614;1.456;2022-07-29T10:40:43;5.73;;;2.20;;
15655;SDS011;7928;43.614;1.456;2022-07-29T10:43:34;3.53;;;1.70;;
15655;SDS011;7928;43.614;1.456;2022-07-29T10:46:04;3.60;;;2.00;;
15655;SDS011;7928;43.614;1.456;2022-07-29T10:48:31;3.97;;;1.80;;
15655;SDS011;7928;43.614;1.456;2022-07-29T10:51:00;4.33;;;2.20;;
15655;SDS011;7928;43.614;1.456;2022-07-29T10:53:49;3.03;;;1.80;;
15655;SDS011;7928;43.614;1.456;2022-07-29T10:56:24;4.67;;;2.70;;
15655;SDS011;7928;43.614;1.456;2022-07-29T11:01:51;3.40;;;1.77;;
15655;SDS011;7928;43.614;1.456;2022-07-29T11:07:20;6.27;;;3.47;;
15655;SDS011;7928;43.614;1.456;2022-07-29T11:12:49;4.57;;;2.10;;
15655;SDS011;7928;43.614;1.456;2022-07-29T11:15:16;7.67;;;2.80;;
15655;SDS011;7928;43.614;1.456;2022-07-29T11:20:32;3.63;;;1.97;;
15655;SDS011;7928;43.614;1.456;2022-07-29T11:23:01;7.10;;;2.10;;
15655;SDS011;7928;43.614;1.456;2022-07-29T11:25:45;3.97;;;2.10;;
15655;SDS011;7928;43.614;1.456;2022-07-29T11:28:34;3.10;;;1.80;;
15655;SDS011;7928;43.614;1.456;2022-07-29T11:31:03;3.43;;;1.77;;
15655;SDS011;7928;43.614;1.456;2022-07-29T11:33:31;4.90;;;2.00;;
15655;SDS011;7928;43.614;1.456;2022-07-29T11:36:08;2.97;;;1.80;;
15655;SDS011;7928;43.614;1.456;2022-07-29T11:38:36;3.57;;;2.30;;
15655;SDS011;7928;43.614;1.456;2022-07-29T11:41:19;3.97;;;1.70;;
15655;SDS011;7928;43.614;1.456;2022-07-29T11:43:50;4.80;;;1.93;;
15655;SDS011;7928;43.614;1.456;2022-07-29T11:49:12;7.87;;;2.47;;
15655;SDS011;7928;43.614;1.456;2022-07-29T11:51:39;3.50;;;2.00;;
15655;SDS011;7928;43.614;1.456;2022-07-29T11:54:07;3.13;;;1.97;;
15655;SDS011;7928;43.614;1.456;2022-07-29T11:56:40;3.43;;;2.10;;
15655;SDS011;7928;43.614;1.456;2022-07-29T11:59:12;4.17;;;2.10;;
15655;SDS011;7928;43.614;1.456;2022-07-29T12:01:51;6.47;;;2.40;;
15655;SDS011;7928;43.614;1.456;2022-07-29T12:04:18;4.38;;;1.80;;
15655;SDS011;7928;43.614;1.456;2022-07-29T12:06:48;3.30;;;1.90;;
15655;SDS011;7928;43.614;1.456;2022-07-29T12:09:16;6.20;;;1.95;;
15655;SDS011;7928;43.614;1.456;2022-07-29T12:11:43;3.38;;;1.98;;
15655;SDS011;7928;43.614;1.456;2022-07-29T12:14:25;2.20;;;1.60;;
15655;SDS011;7928;43.614;1.456;2022-07-29T12:16:53;3.70;;;2.20;;
15655;SDS011;7928;43.614;1.456;2022-07-29T12:19:20;4.65;;;2.30;;
15655;SDS011;7928;43.614;1.456;2022-07-29T12:21:49;3.25;;;1.45;;
15655;SDS011;7928;43.614;1.456;2022-07-29T12:24:17;2.65;;;1.98;;
15655;SDS011;7928;43.614;1.456;2022-07-29T12:26:50;3.78;;;1.92;;
15655;SDS011;7928;43.614;1.456;2022-07-29T12:29:18;2.67;;;2.05;;
15655;SDS011;7928;43.614;1.456;2022-07-29T12:31:50;7.68;;;2.08;;
15655;SDS011;7928;43.614;1.456;2022-07-29T12:34:19;7.60;;;1.67;;
15655;SDS011;7928;43.614;1.456;2022-07-29T12:36:48;2.15;;;1.63;;
15655;SDS011;7928;43.614;1.456;2022-07-29T12:39:16;4.20;;;1.90;;
15655;SDS011;7928;43.614;1.456;2022-07-29T12:41:43;6.18;;;2.20;;
15655;SDS011;7928;43.614;1.456;2022-07-29T12:44:11;3.38;;;1.90;;
15655;SDS011;7928;43.614;1.456;2022-07-29T12:46:38;4.27;;;1.90;;
15655;SDS011;7928;43.614;1.456;2022-07-29T12:49:06;4.70;;;1.73;;
15655;SDS011;7928;43.614;1.456;2022-07-29T12:51:34;2.58;;;1.70;;
15655;SDS011;7928;43.614;1.456;2022-07-29T12:54:03;2.95;;;1.52;;
15655;SDS011;7928;43.614;1.456;2022-07-29T12:56:32;2.55;;;1.60;;
15655;SDS011;7928;43.614;1.456;2022-07-29T12:58:59;2.72;;;1.67;;
15655;SDS011;7928;43.614;1.456;2022-07-29T13:01:26;4.88;;;2.13;;
15655;SDS011;7928;43.614;1.456;2022-07-29T13:04:02;3.57;;;1.80;;
15655;SDS011;7928;43.614;1.456;2022-07-29T13:06:32;3.47;;;2.10;;
15655;SDS011;7928;43.614;1.456;2022-07-29T13:09:02;4.72;;;1.85;;
15655;SDS011;7928;43.614;1.456;2022-07-29T13:11:31;2.92;;;1.80;;
15655;SDS011;7928;43.614;1.456;2022-07-29T13:13:59;6.50;;;2.50;;
15655;SDS011;7928;43.614;1.456;2022-07-29T13:16:27;3.67;;;2.10;;
15655;SDS011;7928;43.614;1.456;2022-07-29T13:19:03;3.20;;;1.90;;
15655;SDS011;7928;43.614;1.456;2022-07-29T13:21:37;5.20;;;2.05;;
15655;SDS011;7928;43.614;1.456;2022-07-29T13:24:05;8.23;;;5.85;;
15655;SDS011;7928;43.614;1.456;2022-07-29T13:26:33;3.10;;;1.70;;
15655;SDS011;7928;43.614;1.456;2022-07-29T13:29:01;4.13;;;1.85;;
15655;SDS011;7928;43.614;1.456;2022-07-29T13:31:29;2.63;;;1.80;;
15655;SDS011;7928;43.614;1.456;2022-07-29T13:33:56;3.33;;;1.90;;
15655;SDS011;7928;43.614;1.456;2022-07-29T13:36:23;2.83;;;1.55;;
15655;SDS011;7928;43.614;1.456;2022-07-29T13:38:53;2.28;;;1.50;;
15655;SDS011;7928;43.614;1.456;2022-07-29T13:41:20;3.97;;;1.42;;
15655;SDS011;7928;43.614;1.456;2022-07-29T13:43:47;4.47;;;1.75;;
15655;SDS011;7928;43.614;1.456;2022-07-29T13:46:14;3.22;;;1.63;;
15655;SDS011;7928;43.614;1.456;2022-07-29T13:48:41;5.17;;;1.80;;
15655;SDS011;7928;43.614;1.456;2022-07-29T13:51:08;2.10;;;1.45;;
15655;SDS011;7928;43.614;1.456;2022-07-29T13:53:35;2.53;;;1.70;;
15655;SDS011;7928;43.614;1.456;2022-07-29T13:56:04;4.87;;;1.40;;
15655;SDS011;7928;43.614;1.456;2022-07-29T13:58:32;2.78;;;1.50;;
15655;SDS011;7928;43.614;1.456;2022-07-29T14:00:59;4.78;;;1.90;;
15655;SDS011;7928;43.614;1.456;2022-07-29T14:03:26;3.00;;;1.60;;
15655;SDS011;7928;43.614;1.456;2022-07-29T14:05:54;2.85;;;1.48;;
15655;SDS011;7928;43.614;1.456;2022-07-29T14:08:21;1.60;;;1.40;;
15655;SDS011;7928;43.614;1.456;2022-07-29T14:10:48;3.08;;;1.73;;
15655;SDS011;7928;43.614;1.456;2022-07-29T14:13:17;3.03;;;1.60;;
15655;SDS011;7928;43.614;1.456;2022-07-29T14:15:44;3.97;;;1.63;;
15655;SDS011;7928;43.614;1.456;2022-07-29T14:18:11;2.47;;;1.63;;
15655;SDS011;7928;43.614;1.456;2022-07-29T14:20:37;4.45;;;1.88;;
15655;SDS011;7928;43.614;1.456;2022-07-29T14:23:04;2.03;;;1.58;;
15655;SDS011;7928;43.614;1.456;2022-07-29T14:25:31;3.72;;;1.60;;
15655;SDS011;7928;43.614;1.456;2022-07-29T14:27:58;3.50;;;1.55;;
15655;SDS011;7928;43.614;1.456;2022-07-29T14:30:27;4.47;;;1.95;;
15655;SDS011;7928;43.614;1.456;2022-07-29T14:32:54;2.92;;;1.95;;
15655;SDS011;7928;43.614;1.456;2022-07-29T14:35:21;5.70;;;1.80;;
15655;SDS011;7928;43.614;1.456;2022-07-29T14:37:48;3.85;;;1.70;;
15655;SDS011;7928;43.614;1.456;2022-07-29T14:40:15;4.07;;;1.70;;
15655;SDS011;7928;43.614;1.456;2022-07-29T14:42:42;3.53;;;1.63;;
15655;SDS011;7928;43.614;1.456;2022-07-29T14:45:09;7.38;;;1.95;;
15655;SDS011;7928;43.614;1.456;2022-07-29T14:47:37;4.03;;;1.70;;
15655;SDS011;7928;43.614;1.456;2022-07-29T14:50:05;2.72;;;1.88;;
15655;SDS011;7928;43.614;1.456;2022-07-29T14:52:33;3.00;;;1.88;;
15655;SDS011;7928;43.614;1.456;2022-07-29T14:55:01;3.35;;;1.80;;
15655;SDS011;7928;43.614;1.456;2022-07-29T14:57:28;3.50;;;1.80;;
15655;SDS011;7928;43.614;1.456;2022-07-29T14:59:55;3.22;;;1.85;;
15655;SDS011;7928;43.614;1.456;2022-07-29T15:02:22;3.53;;;1.98;;
15655;SDS011;7928;43.614;1.456;2022-07-29T15:04:51;4.63;;;1.60;;
15655;SDS011;7928;43.614;1.456;2022-07-29T15:07:18;4.78;;;1.67;;
15655;SDS011;7928;43.614;1.456;2022-07-29T15:09:45;3.58;;;1.67;;
15655;SDS011;7928;43.614;1.456;2022-07-29T15:12:12;1.88;;;1.50;;
15655;SDS011;7928;43.614;1.456;2022-07-29T15:14:39;1.98;;;1.60;;
15655;SDS011;7928;43.614;1.456;2022-07-29T15:17:06;1.98;;;1.50;;
15655;SDS011;7928;43.614;1.456;2022-07-29T15:19:33;2.90;;;1.75;;
15655;SDS011;7928;43.614;1.456;2022-07-29T15:22:01;3.42;;;1.38;;
15655;SDS011;7928;43.614;1.456;2022-07-29T15:24:29;2.88;;;1.55;;
15655;SDS011;7928;43.614;1.456;2022-07-29T15:26:56;3.50;;;1.83;;
15655;SDS011;7928;43.614;1.456;2022-07-29T15:29:24;4.85;;;1.63;;